Terminal Aerodrome Forecast
Issued by NWS

Home | Current Version | Previous Version | Text Only | Print | Product List | Glossary On
Versions: 1 2 3 4 5 6 7 8 9 10 11 12 13
000
FTUS43 KAPX 031559 AAA
TAFPLN
TAF AMD
KPLN 031559Z 0316/0412 29004KT P6SM VCSH SCT020 OVC040
     FM040000 00000KT P6SM OVC040=

USA.gov is the U.S. government's official web portal to all federal, state and local government web resources and services.